Time;durP1;ratioP1;P1;durP2;ratioP2;P2;SDS_P1;SDS_P2;PMS_P1;PMS_P2;Temp;Humidity;BMP_temperature;BMP_pressure;BME280_temperature;BME280_humidity;BME280_pressure;Samples;Min_cycle;Max_cycle;Signal;HPM_P1;HPM_P2
2023/11/08 00:00:49;;;;;;;19.90;9.90;;;;;;;8.83;89.02;95330.91;106745;1273;22524;-80
2023/11/08 00:03:38;;;;;;;20.10;10.80;;;;;;;8.88;88.43;95328.52;106785;1273;22530;-80
2023/11/08 00:06:08;;;;;;;16.50;8.70;;;;;;;8.92;88.35;95331.81;106822;1273;22663;-80
2023/11/08 00:08:36;;;;;;;14.80;8.60;;;;;;;8.99;88.59;95328.88;106782;1250;22625;-79
2023/11/08 00:11:04;;;;;;;11.50;6.80;;;;;;;9.02;88.11;95329.54;106771;1273;22534;-80
2023/11/08 00:13:33;;;;;;;11.40;6.80;;;;;;;9.01;87.79;95330.25;106732;1273;22526;-80
2023/11/08 00:16:02;;;;;;;13.90;7.00;;;;;;;8.99;87.85;95325.20;106729;1273;22615;-80
2023/11/08 00:18:32;;;;;;;11.10;6.60;;;;;;;9.04;88.04;95319.50;106799;1273;22553;-80
2023/11/08 00:21:00;;;;;;;11.50;6.50;;;;;;;9.11;88.27;95323.06;106740;1273;22636;-79
2023/11/08 00:23:29;;;;;;;9.60;6.40;;;;;;;9.18;87.94;95324.01;106796;1273;24578;-80
2023/11/08 00:25:57;;;;;;;13.90;8.50;;;;;;;9.21;87.76;95317.98;106853;1273;24462;-80
2023/11/08 00:28:25;;;;;;;10.70;6.30;;;;;;;9.23;87.46;95300.04;106825;1273;25351;-80
2023/11/08 00:30:53;;;;;;;14.80;6.30;;;;;;;9.19;87.26;95293.80;106631;1273;256053;-80
2023/11/08 00:33:22;;;;;;;10.60;6.90;;;;;;;9.20;87.53;95296.59;106794;1273;23136;-80
2023/11/08 00:35:53;;;;;;;9.00;6.10;;;;;;;9.17;87.24;95304.54;106789;1273;22581;-80
2023/11/08 00:38:22;;;;;;;9.30;5.60;;;;;;;9.12;86.97;95299.89;106738;1273;22528;-80
2023/11/08 00:40:50;;;;;;;10.90;5.40;;;;;;;9.06;87.28;95301.73;106804;1273;22530;-80
2023/11/08 00:43:19;;;;;;;9.80;5.20;;;;;;;9.04;87.30;95290.91;106769;1273;25304;-80
2023/11/08 00:45:49;;;;;;;9.60;5.00;;;;;;;8.99;87.35;95286.08;106790;1273;22535;-80
2023/11/08 00:48:18;;;;;;;7.80;4.80;;;;;;;8.92;87.75;95286.36;106782;1273;22995;-81
2023/11/08 00:50:46;;;;;;;9.80;5.10;;;;;;;8.87;87.46;95286.29;106973;1274;22540;-81
2023/11/08 00:53:15;;;;;;;8.50;4.90;;;;;;;8.81;87.76;95284.44;106806;1262;22522;-80
2023/11/08 00:55:44;;;;;;;7.30;4.80;;;;;;;8.80;88.15;95284.82;106713;1273;25485;-80
2023/11/08 00:58:12;;;;;;;10.20;6.00;;;;;;;8.75;88.51;95282.10;106782;1273;22520;-80
2023/11/08 01:00:42;;;;;;;8.80;5.70;;;;;;;8.71;88.91;95275.32;106864;1273;24284;-80
2023/11/08 01:03:12;;;;;;;11.20;6.00;;;;;;;8.67;88.83;95268.89;106841;1273;22527;-80
2023/11/08 01:05:40;;;;;;;11.80;5.80;;;;;;;8.65;88.58;95268.77;106817;1256;22521;-79
2023/11/08 01:08:11;;;;;;;11.10;6.40;;;;;;;8.60;88.82;95266.03;106720;1273;22520;-80
2023/11/08 01:10:43;;;;;;;10.40;6.30;;;;;;;8.57;89.28;95271.70;106800;1273;25236;-80
2023/11/08 01:13:13;;;;;;;12.00;6.60;;;;;;;8.54;89.57;95272.10;106804;1273;24280;-80
2023/11/08 01:15:41;;;;;;;10.30;5.50;;;;;;;8.52;89.82;95261.96;106781;1273;25246;-80
2023/11/08 01:18:12;;;;;;;11.80;6.10;;;;;;;8.50;89.62;95267.08;106782;1273;24331;-80
2023/11/08 01:20:44;;;;;;;9.10;5.70;;;;;;;8.52;89.56;95252.67;106939;1273;22560;-80
2023/11/08 01:23:13;;;;;;;11.80;7.70;;;;;;;8.53;89.70;95251.24;106779;1273;24256;-80
2023/11/08 01:25:43;;;;;;;9.40;5.90;;;;;;;8.53;89.80;95254.75;106602;1274;24263;-80
2023/11/08 01:28:11;;;;;;;8.10;5.10;;;;;;;8.55;89.98;95259.46;106898;1273;22517;-79
2023/11/08 01:30:39;;;;;;;10.70;5.50;;;;;;;8.57;89.99;95253.27;106872;1273;25355;-79
2023/11/08 01:33:08;;;;;;;7.10;5.00;;;;;;;8.63;90.57;95249.52;106766;1273;23428;-80
2023/11/08 01:35:37;;;;;;;10.90;7.20;;;;;;;8.66;90.78;95244.53;106905;1273;22554;-80
2023/11/08 01:38:05;;;;;;;9.00;5.20;;;;;;;8.69;90.66;95238.54;106819;1273;24215;-80
2023/11/08 01:40:33;;;;;;;7.50;4.40;;;;;;;8.70;90.65;95243.26;106742;1273;22529;-79
2023/11/08 01:43:02;;;;;;;7.00;4.30;;;;;;;8.76;90.82;95247.71;106827;1273;25245;-80
2023/11/08 01:45:30;;;;;;;8.20;4.50;;;;;;;8.83;90.91;95255.31;106913;1273;22520;-80
2023/11/08 01:47:58;;;;;;;5.70;3.50;;;;;;;8.86;91.02;95255.42;106856;1273;22604;-79
2023/11/08 01:50:26;;;;;;;5.40;3.80;;;;;;;8.89;90.77;95256.44;106816;1273;22801;-80
2023/11/08 01:52:55;;;;;;;5.70;4.20;;;;;;;8.95;90.99;95257.02;106673;1273;24391;-79
2023/11/08 01:55:23;;;;;;;5.30;3.60;;;;;;;8.98;90.98;95260.83;106726;1273;22586;-80
2023/11/08 01:57:52;;;;;;;5.90;3.80;;;;;;;9.02;91.00;95250.06;106804;1273;22637;-80
2023/11/08 02:00:23;;;;;;;6.10;3.70;;;;;;;9.08;90.98;95251.00;106712;1273;25376;-79
2023/11/08 02:02:51;;;;;;;3.90;2.60;;;;;;;9.12;90.66;95253.39;106794;1273;22534;-80
2023/11/08 02:05:21;;;;;;;3.80;2.30;;;;;;;9.11;90.51;95249.55;106798;1273;22645;-80
2023/11/08 02:07:55;;;;;;;2.50;2.20;;;;;;;9.11;90.79;95238.30;106891;1273;22529;-80
2023/11/08 02:10:24;;;;;;;2.90;2.30;;;;;;;9.13;90.69;95238.10;106837;1273;22601;-80
2023/11/08 02:12:53;;;;;;;3.60;2.40;;;;;;;9.11;90.67;95236.73;107047;1273;22532;-80
2023/11/08 02:15:24;;;;;;;3.80;2.30;;;;;;;9.14;90.71;95236.86;106983;1273;22533;-81
2023/11/08 02:17:52;;;;;;;3.00;2.40;;;;;;;9.18;91.00;95235.37;106804;1274;22662;-81
2023/11/08 02:20:20;;;;;;;2.50;2.10;;;;;;;9.23;90.78;95239.65;106637;1273;25582;-80
2023/11/08 02:22:48;;;;;;;2.80;2.00;;;;;;;9.25;90.76;95236.64;106842;1273;22749;-81
2023/11/08 02:25:17;;;;;;;2.30;2.00;;;;;;;9.26;90.67;95234.34;106846;1273;25379;-81
2023/11/08 02:27:47;;;;;;;2.10;1.90;;;;;;;9.28;90.79;95227.27;106755;1273;25583;-80
2023/11/08 02:30:17;;;;;;;2.20;2.00;;;;;;;9.32;90.80;95229.66;106829;1273;24266;-81
2023/11/08 02:32:45;;;;;;;3.90;2.60;;;;;;;9.39;90.92;95237.96;107045;1273;22671;-81
2023/11/08 02:35:14;;;;;;;2.40;2.20;;;;;;;9.42;90.50;95244.38;106764;1264;22556;-81
2023/11/08 02:37:46;;;;;;;2.30;2.00;;;;;;;9.40;90.18;95249.53;106783;1273;23474;-81
2023/11/08 02:40:15;;;;;;;7.30;2.70;;;;;;;9.40;89.91;95250.05;106794;1273;22741;-81
2023/11/08 02:42:45;;;;;;;3.30;2.80;;;;;;;9.45;90.56;95245.90;106790;1273;24219;-81
2023/11/08 02:45:14;;;;;;;2.80;2.50;;;;;;;9.50;90.39;95242.30;106844;1273;25348;-81
2023/11/08 02:47:42;;;;;;;5.30;2.80;;;;;;;9.57;90.63;95248.84;106866;1273;22519;-81
2023/11/08 02:50:12;;;;;;;3.10;2.50;;;;;;;9.63;90.06;95258.55;106643;1273;22551;-81
2023/11/08 02:52:41;;;;;;;3.40;2.60;;;;;;;9.62;89.82;95262.61;106814;1273;25413;-80
2023/11/08 02:55:11;;;;;;;2.20;1.80;;;;;;;9.63;89.91;95266.80;106974;1273;25063;-80
2023/11/08 02:57:40;;;;;;;4.10;2.30;;;;;;;9.56;89.43;95256.40;106791;1273;22527;-80
2023/11/08 03:00:10;;;;;;;2.90;2.10;;;;;;;9.52;89.65;95255.42;107065;1273;24302;-80
2023/11/08 03:02:39;;;;;;;2.40;1.80;;;;;;;9.50;89.65;95257.56;107078;1273;24267;-80
2023/11/08 03:05:08;;;;;;;3.40;1.70;;;;;;;9.50;89.90;95262.15;106740;1273;22654;-80
2023/11/08 03:07:36;;;;;;;2.60;1.90;;;;;;;9.53;90.10;95264.38;106837;1262;24051;-80
2023/11/08 03:10:05;;;;;;;2.50;1.70;;;;;;;9.53;89.96;95264.17;106773;1274;25524;-79
2023/11/08 03:12:34;;;;;;;2.30;1.60;;;;;;;9.55;89.95;95260.12;106846;1263;22609;-79
2023/11/08 03:15:02;;;;;;;2.30;2.00;;;;;;;9.53;89.84;95256.11;106810;1273;24218;-79
2023/11/08 03:17:30;;;;;;;3.50;1.80;;;;;;;9.58;90.23;95260.76;106786;1262;24382;-79
2023/11/08 03:19:59;;;;;;;2.50;1.90;;;;;;;9.64;90.12;95264.33;107062;1273;22631;-80
2023/11/08 03:22:27;;;;;;;2.40;1.90;;;;;;;9.65;89.58;95259.91;106800;1273;22524;-80
2023/11/08 03:24:55;;;;;;;2.30;2.10;;;;;;;9.57;89.05;95263.06;106997;1273;24410;-80
2023/11/08 03:27:23;;;;;;;2.90;2.10;;;;;;;9.52;89.28;95262.10;106808;1273;22771;-81
2023/11/08 03:29:51;;;;;;;3.00;2.30;;;;;;;9.55;89.71;95259.23;106771;1273;23016;-81
2023/11/08 03:32:22;;;;;;;2.70;1.90;;;;;;;9.50;88.85;95257.59;106802;1273;22531;-81
2023/11/08 03:34:50;;;;;;;3.90;2.00;;;;;;;9.39;88.75;95253.21;106822;1273;22519;-81
2023/11/08 03:37:18;;;;;;;3.50;2.60;;;;;;;9.41;89.79;95255.64;106785;1273;22523;-81
2023/11/08 03:39:46;;;;;;;4.30;2.40;;;;;;;9.46;89.79;95259.91;106763;1273;24228;-81
2023/11/08 03:42:15;;;;;;;3.30;2.90;;;;;;;9.41;90.20;95268.80;106809;1273;22547;-81
2023/11/08 03:44:43;;;;;;;4.10;2.20;;;;;;;9.36;89.87;95269.09;106765;1273;22769;-82
2023/11/08 03:47:11;;;;;;;3.20;2.40;;;;;;;9.39;90.40;95265.17;106770;1273;22577;-82
2023/11/08 03:49:39;;;;;;;6.60;2.10;;;;;;;9.43;90.66;95265.79;106769;1273;22614;-82
2023/11/08 03:52:07;;;;;;;2.40;2.20;;;;;;;9.49;90.58;95266.55;106832;1273;22556;-82
2023/11/08 03:54:35;;;;;;;13.30;2.80;;;;;;;9.53;90.42;95256.30;107001;1273;24448;-81
2023/11/08 03:57:04;;;;;;;3.60;2.60;;;;;;;9.55;90.24;95254.84;106862;1262;22948;-82
2023/11/08 03:59:32;;;;;;;3.80;2.90;;;;;;;9.55;90.12;95249.05;106784;1273;22524;-81
2023/11/08 04:02:00;;;;;;;5.60;2.60;;;;;;;9.53;89.83;95253.48;106794;1273;25400;-82
2023/11/08 04:04:28;;;;;;;3.50;3.20;;;;;;;9.51;90.15;95249.48;106833;1273;22518;-82
2023/11/08 04:06:56;;;;;;;4.00;3.10;;;;;;;9.53;90.32;95247.34;106875;1273;24271;-82
2023/11/08 04:09:24;;;;;;;4.10;3.20;;;;;;;9.47;89.72;95251.83;106863;1262;25246;-81
2023/11/08 04:11:53;;;;;;;5.20;3.40;;;;;;;9.41;89.50;95258.28;106753;1273;25329;-81
2023/11/08 04:14:21;;;;;;;6.80;4.50;;;;;;;9.36;89.73;95251.70;106780;1273;22633;-82
2023/11/08 04:16:51;;;;;;;4.50;4.10;;;;;;;9.32;89.88;95248.09;106854;1273;22680;-80
2023/11/08 04:19:19;;;;;;;7.80;5.30;;;;;;;9.28;89.88;95253.09;106706;1273;22538;-80
2023/11/08 04:21:49;;;;;;;7.30;5.90;;;;;;;9.23;89.94;95252.83;106833;1273;22524;-81
2023/11/08 04:24:17;;;;;;;7.50;6.00;;;;;;;9.19;89.93;95245.70;106881;1273;22541;-82
2023/11/08 04:26:46;;;;;;;9.40;5.90;;;;;;;9.17;90.12;95244.35;106853;1273;22520;-82
2023/11/08 04:29:15;;;;;;;6.00;5.30;;;;;;;9.12;89.90;95239.16;106838;1273;22528;-83
2023/11/08 04:31:44;;;;;;;5.60;5.00;;;;;;;9.09;90.28;95231.69;106872;1273;22660;-82
2023/11/08 04:34:12;;;;;;;5.40;4.90;;;;;;;9.05;90.46;95229.12;106877;1253;22536;-82
2023/11/08 04:36:41;;;;;;;5.40;4.70;;;;;;;9.00;90.60;95224.30;106868;1273;22819;-82
2023/11/08 04:39:12;;;;;;;6.50;5.10;;;;;;;8.96;90.47;95225.42;106817;1273;25528;-82
2023/11/08 04:41:40;;;;;;;9.00;6.80;;;;;;;8.92;91.31;95226.21;106835;1273;23942;-82
2023/11/08 04:44:09;;;;;;;23.10;17.90;;;;;;;8.89;91.25;95230.30;106933;1273;24320;-82
2023/11/08 04:46:40;;;;;;;44.60;40.10;;;;;;;8.87;91.76;95222.42;107004;1273;22651;-82
2023/11/08 04:49:09;;;;;;;12.20;10.30;;;;;;;8.87;92.76;95208.58;106945;1271;24075;-83
2023/11/08 04:51:38;;;;;;;10.10;8.30;;;;;;;8.95;92.89;95208.97;106995;1273;22567;-82
2023/11/08 04:54:06;;;;;;;15.10;7.30;;;;;;;9.04;92.94;95207.05;107231;1273;26769;-83
2023/11/08 04:56:34;;;;;;;10.50;5.90;;;;;;;9.13;92.78;95217.75;106997;1273;24222;-82
2023/11/08 04:59:04;;;;;;;18.10;8.70;;;;;;;9.20;93.18;95213.93;106890;1273;25355;-83
2023/11/08 05:01:33;;;;;;;19.70;9.90;;;;;;;9.30;93.07;95210.76;107170;1273;22516;-83
2023/11/08 05:04:01;;;;;;;29.30;12.90;;;;;;;9.31;92.87;95215.28;106957;1273;24206;-81
2023/11/08 05:06:30;;;;;;;12.10;7.30;;;;;;;9.28;93.63;95199.21;106921;1273;24213;-82
2023/11/08 05:08:59;;;;;;;6.30;3.70;;;;;;;9.35;93.15;95201.36;107076;1268;22533;-82
2023/11/08 05:11:28;;;;;;;6.50;4.60;;;;;;;9.41;92.97;95203.50;106864;1273;22969;-82
2023/11/08 05:13:57;;;;;;;15.50;11.80;;;;;;;9.48;92.73;95207.94;106988;1273;22652;-83
2023/11/08 05:16:25;;;;;;;8.90;6.50;;;;;;;9.50;92.33;95213.48;106847;1273;22764;-83
2023/11/08 05:18:54;;;;;;;19.50;14.30;;;;;;;9.46;91.69;95224.13;106906;1273;22535;-83
2023/11/08 05:21:23;;;;;;;8.20;5.20;;;;;;;9.45;91.68;95225.55;107091;1273;24602;-84
2023/11/08 05:23:52;;;;;;;3.70;3.20;;;;;;;9.44;91.39;95223.48;107047;1273;24054;-84
2023/11/08 05:26:20;;;;;;;4.20;2.50;;;;;;;9.54;90.87;95211.85;106939;1273;25256;-83
2023/11/08 05:28:48;;;;;;;5.70;4.20;;;;;;;9.66;90.76;95205.80;107088;1273;24228;-83
2023/11/08 05:31:17;;;;;;;6.00;3.40;;;;;;;9.72;90.63;95205.48;106858;1273;25290;-83
2023/11/08 05:33:45;;;;;;;3.70;3.30;;;;;;;9.74;90.35;95212.63;106844;1273;22527;-82
2023/11/08 05:36:15;;;;;;;4.10;3.50;;;;;;;9.79;90.16;95209.73;107016;1273;24255;-83
2023/11/08 05:38:44;;;;;;;3.40;3.10;;;;;;;9.82;89.67;95219.35;107033;1273;23915;-83
2023/11/08 05:41:18;;;;;;;2.90;2.50;;;;;;;9.81;89.75;95231.13;106976;1273;23183;-83
2023/11/08 05:43:46;;;;;;;5.00;4.40;;;;;;;9.75;89.39;95233.70;107022;1273;25355;-83
2023/11/08 05:46:14;;;;;;;3.50;3.00;;;;;;;9.74;89.65;95234.60;106860;1273;22520;-82
2023/11/08 05:48:43;;;;;;;4.70;3.80;;;;;;;9.79;89.75;95227.65;106860;1273;23890;-82
2023/11/08 05:51:11;;;;;;;3.60;2.70;;;;;;;9.84;89.71;95217.02;106792;1273;24256;-82
2023/11/08 05:53:40;;;;;;;7.00;2.50;;;;;;;9.86;89.54;95222.58;107035;1273;22537;-82
2023/11/08 05:56:08;;;;;;;7.80;3.30;;;;;;;9.90;89.53;95224.79;107076;1273;22530;-82
2023/11/08 05:58:36;;;;;;;3.60;2.60;;;;;;;9.87;89.35;95221.52;107058;1273;22521;-82
2023/11/08 06:01:05;;;;;;;5.90;3.90;;;;;;;9.86;89.53;95223.48;107055;1273;25239;-83
2023/11/08 06:03:33;;;;;;;4.30;3.80;;;;;;;9.86;89.70;95231.20;107078;1273;24372;-81
2023/11/08 06:06:02;;;;;;;6.70;4.40;;;;;;;9.90;90.45;95242.00;106893;1273;22510;-83
2023/11/08 06:08:30;;;;;;;8.00;3.50;;;;;;;9.94;90.55;95247.71;107066;1273;22533;-82
2023/11/08 06:10:58;;;;;;;3.60;3.20;;;;;;;9.99;90.45;95247.77;106844;1262;22781;-82
2023/11/08 06:13:27;;;;;;;5.20;3.80;;;;;;;10.02;90.06;95258.25;107311;1273;25675;-82
2023/11/08 06:15:55;;;;;;;7.20;4.50;;;;;;;10.08;90.04;95272.70;107102;1273;22533;-80
2023/11/08 06:18:26;;;;;;;7.00;5.40;;;;;;;10.15;89.98;95279.23;106990;1273;24245;-84
2023/11/08 06:20:55;;;;;;;10.60;7.70;;;;;;;10.21;89.86;95292.45;107029;1273;25615;-80
2023/11/08 06:23:23;;;;;;;4.60;4.10;;;;;;;10.21;89.07;95289.30;106954;1273;25453;-81
2023/11/08 06:25:51;;;;;;;4.80;3.00;;;;;;;10.22;88.53;95284.70;107037;1273;22519;-82
2023/11/08 06:28:20;;;;;;;26.80;19.90;;;;;;;10.24;88.71;95288.72;107042;1273;22577;-80
2023/11/08 06:30:48;;;;;;;24.90;19.40;;;;;;;10.26;88.78;95296.23;107124;1273;25408;-83
2023/11/08 06:33:17;;;;;;;53.60;36.00;;;;;;;10.24;88.32;95293.45;107010;1273;22531;-81
2023/11/08 06:35:45;;;;;;;130.60;93.10;;;;;;;10.23;88.11;95287.31;106983;1273;22634;-81
2023/11/08 06:38:14;;;;;;;11.00;9.00;;;;;;;10.21;87.98;95284.90;106931;1273;22515;-81
2023/11/08 06:40:43;;;;;;;15.20;13.60;;;;;;;10.19;88.00;95287.58;106914;1273;25250;-80
2023/11/08 06:43:11;;;;;;;3.10;1.70;;;;;;;10.14;87.70;95303.84;107059;1273;22507;-80
2023/11/08 06:45:39;;;;;;;14.00;12.60;;;;;;;10.14;88.07;95309.85;107091;1273;25226;-80
2023/11/08 06:48:07;;;;;;;2.60;2.40;;;;;;;10.18;88.49;95309.76;107061;1273;22631;-79
2023/11/08 06:50:36;;;;;;;6.70;6.10;;;;;;;10.21;88.37;95315.30;106853;1273;22543;-81
2023/11/08 06:53:04;;;;;;;0.90;0.80;;;;;;;10.21;88.24;95313.90;106828;1273;22520;-81
2023/11/08 06:55:33;;;;;;;3.70;1.30;;;;;;;10.21;87.51;95306.34;106851;1273;24336;-82
2023/11/08 06:58:07;;;;;;;1.20;1.00;;;;;;;10.20;86.51;95308.84;107048;1273;25942;-83
2023/11/08 07:00:37;;;;;;;2.50;2.00;;;;;;;10.20;86.45;95309.54;107067;1273;24272;-82
2023/11/08 07:03:07;;;;;;;2.70;1.00;;;;;;;10.22;85.86;95299.84;107038;1273;22518;-82
2023/11/08 07:05:35;;;;;;;1.00;0.80;;;;;;;10.22;86.04;95306.51;107122;1273;22528;-83
2023/11/08 07:08:09;;;;;;;1.70;0.50;;;;;;;10.23;85.59;95307.89;107013;1273;22514;-80
2023/11/08 07:10:37;;;;;;;2.20;0.80;;;;;;;10.25;84.31;95312.60;106883;1273;24742;-84
2023/11/08 07:13:06;;;;;;;1.30;0.80;;;;;;;10.25;84.35;95308.55;107017;1273;25423;-83
2023/11/08 07:15:34;;;;;;;2.60;1.20;;;;;;;10.29;84.59;95298.10;106980;1273;22578;-81
2023/11/08 07:18:02;;;;;;;1.40;0.80;;;;;;;10.37;84.97;95289.68;106924;1273;23003;-81
2023/11/08 07:20:31;;;;;;;3.70;1.50;;;;;;;10.38;83.73;95283.14;106929;1273;25447;-80
2023/11/08 07:23:01;;;;;;;1.50;1.30;;;;;;;10.39;83.76;95287.17;106867;1273;24174;-81
2023/11/08 07:25:32;;;;;;;1.20;1.10;;;;;;;10.42;83.84;95287.45;106924;1273;23129;-78
2023/11/08 07:28:01;;;;;;;2.30;1.10;;;;;;;10.42;82.41;95297.48;106968;1273;22568;-79
2023/11/08 07:30:29;;;;;;;4.60;0.90;;;;;;;10.40;81.76;95296.11;106880;1273;24231;-79
2023/11/08 07:32:57;;;;;;;2.20;1.10;;;;;;;10.42;81.94;95286.55;106956;1256;22645;-81
2023/11/08 07:35:26;;;;;;;1.40;0.60;;;;;;;10.43;81.91;95276.16;107023;1273;24332;-82
2023/11/08 07:37:54;;;;;;;3.40;1.00;;;;;;;10.45;82.21;95280.88;107099;1273;22527;-81
2023/11/08 07:40:23;;;;;;;1.50;0.70;;;;;;;10.47;82.04;95287.52;107053;1273;23921;-82
2023/11/08 07:42:51;;;;;;;1.60;1.10;;;;;;;10.48;81.88;95281.71;107129;1250;25609;-81
2023/11/08 07:45:19;;;;;;;2.60;0.80;;;;;;;10.45;81.67;95298.63;107030;1273;22535;-78
2023/11/08 07:47:47;;;;;;;1.50;0.70;;;;;;;10.42;80.50;95316.83;106949;1273;22552;-81
2023/11/08 07:50:16;;;;;;;8.10;5.10;;;;;;;10.35;80.39;95315.56;106868;1273;25415;-81
2023/11/08 07:52:44;;;;;;;7.00;4.60;;;;;;;10.30;80.19;95317.42;106842;1273;22543;-80
2023/11/08 07:55:12;;;;;;;7.50;6.30;;;;;;;10.23;80.60;95318.26;106888;1273;24215;-79
2023/11/08 07:57:40;;;;;;;1.20;1.10;;;;;;;10.16;80.73;95303.64;107076;1272;22615;-80
2023/11/08 08:00:14;;;;;;;27.30;22.40;;;;;;;10.11;80.53;95312.00;106863;1273;22629;-80
2023/11/08 08:02:43;;;;;;;7.50;6.50;;;;;;;10.07;80.71;95309.83;106933;1273;24388;-82
2023/11/08 08:05:12;;;;;;;32.40;23.20;;;;;;;10.04;81.07;95317.59;106992;1273;24455;-80
2023/11/08 08:07:41;;;;;;;4.80;3.60;;;;;;;10.06;81.45;95327.59;107021;1273;22472;-79
2023/11/08 08:10:12;;;;;;;1.10;0.80;;;;;;;10.06;81.31;95323.20;107026;1273;22925;-78
2023/11/08 08:12:42;;;;;;;1.70;0.80;;;;;;;10.05;80.03;95318.13;107593;1273;22526;-79
2023/11/08 08:15:16;;;;;;;2.60;2.40;;;;;;;10.04;79.25;95316.04;106817;1273;24238;-79
2023/11/08 08:17:45;;;;;;;1.60;1.40;;;;;;;10.03;79.44;95320.10;106908;1273;22529;-82
2023/11/08 08:20:14;;;;;;;3.50;2.50;;;;;;;10.05;78.90;95325.13;106827;1273;22523;-81
2023/11/08 08:22:42;;;;;;;4.20;2.50;;;;;;;10.09;78.05;95314.34;106963;1273;22769;-81
2023/11/08 08:25:11;;;;;;;1.10;0.60;;;;;;;10.12;78.30;95311.46;106916;1273;25366;-81
2023/11/08 08:27:40;;;;;;;3.20;1.10;;;;;;;10.16;77.22;95316.13;106902;1273;24375;-81
2023/11/08 08:30:14;;;;;;;1.10;0.90;;;;;;;10.16;76.98;95324.39;106894;1273;24344;-79
2023/11/08 08:32:43;;;;;;;;;;;;;;;10.19;77.45;95321.34;106958;1262;25214;-81
2023/11/08 08:35:12;;;;;;;1.80;1.00;;;;;;;10.24;77.60;95319.12;106914;1273;22531;-81
2023/11/08 08:37:41;;;;;;;1.70;1.00;;;;;;;10.27;77.00;95317.30;106913;1273;23890;-77
2023/11/08 08:40:12;;;;;;;0.60;0.60;;;;;;;10.28;76.61;95322.38;107006;1273;24253;-81
2023/11/08 08:42:42;;;;;;;2.10;0.70;;;;;;;10.32;75.48;95319.16;106958;1273;22607;-82
2023/11/08 08:45:11;;;;;;;1.60;0.70;;;;;;;10.35;75.04;95320.49;106884;1273;24220;-80
2023/11/08 08:47:40;;;;;;;1.10;0.70;;;;;;;10.38;73.41;95326.04;106763;1273;25314;-77
2023/11/08 08:50:13;;;;;;;1.80;0.90;;;;;;;10.39;72.59;95321.79;107095;1273;24296;-80
2023/11/08 08:52:44;;;;;;;2.10;1.90;;;;;;;10.43;72.43;95324.89;106961;1273;22520;-79
2023/11/08 08:55:15;;;;;;;1.00;0.70;;;;;;;10.46;73.07;95319.55;106952;1273;24228;-80
2023/11/08 08:57:46;;;;;;;1.60;1.00;;;;;;;10.50;72.95;95319.27;107030;1274;22529;-81
2023/11/08 09:00:18;;;;;;;1.60;1.20;;;;;;;10.46;72.62;95320.23;106952;1273;22659;-80
2023/11/08 09:02:47;;;;;;;1.30;0.80;;;;;;;10.48;72.49;95316.34;106920;1273;22650;-83
2023/11/08 09:05:20;;;;;;;1.70;0.80;;;;;;;10.46;72.59;95306.17;106985;1273;22528;-77
2023/11/08 09:07:51;;;;;;;2.20;0.80;;;;;;;10.39;71.32;95311.80;106899;1273;22936;-78
2023/11/08 09:10:21;;;;;;;1.30;0.80;;;;;;;10.27;71.10;95322.58;107037;1273;25288;-78
2023/11/08 09:12:50;;;;;;;0.80;0.70;;;;;;;10.23;70.43;95309.65;106816;1274;22526;-78
2023/11/08 09:15:19;;;;;;;1.50;0.70;;;;;;;10.25;70.91;95311.55;107030;1273;22618;-78
2023/11/08 09:17:47;;;;;;;1.40;0.90;;;;;;;10.33;70.43;95309.45;107225;1273;22562;-81
2023/11/08 09:20:15;;;;;;;1.80;0.70;;;;;;;10.52;71.78;95301.65;106919;1273;25432;-80
2023/11/08 09:22:44;;;;;;;1.50;1.00;;;;;;;10.73;70.45;95295.17;107099;1273;25309;-80
2023/11/08 09:25:13;;;;;;;2.00;1.50;;;;;;;10.79;68.95;95298.19;106988;1273;22522;-81
2023/11/08 09:27:41;;;;;;;1.80;0.90;;;;;;;10.81;68.60;95298.33;106928;1273;22531;-78
2023/11/08 09:30:11;;;;;;;2.40;1.00;;;;;;;10.80;67.40;95311.02;106807;1250;22527;-77
2023/11/08 09:32:39;;;;;;;1.70;1.10;;;;;;;10.94;68.02;95310.33;106702;1274;26548;-77
2023/11/08 09:35:08;;;;;;;2.40;0.90;;;;;;;10.88;67.68;95308.37;106885;1273;24372;-79
2023/11/08 09:37:36;;;;;;;3.30;2.80;;;;;;;10.86;68.67;95304.88;107126;1273;22546;-79
2023/11/08 09:40:09;;;;;;;2.30;1.90;;;;;;;10.90;69.64;95298.28;106933;1273;22606;-81
2023/11/08 09:42:38;;;;;;;;;;;;;;;11.02;67.18;95296.74;106970;1273;23863;-78
2023/11/08 09:45:11;;;;;;;1.10;0.90;;;;;;;11.09;66.04;95296.39;106892;1273;24258;-80
2023/11/08 09:47:43;;;;;;;10.60;8.50;;;;;;;11.24;66.17;95284.91;106906;1273;25259;-80
2023/11/08 09:50:12;;;;;;;2.10;1.50;;;;;;;11.52;66.12;95287.17;106848;1273;22536;-81
2023/11/08 09:52:41;;;;;;;2.30;1.20;;;;;;;11.79;65.60;95291.70;106890;1262;25401;-78
2023/11/08 09:55:11;;;;;;;2.10;1.10;;;;;;;12.16;63.09;95283.98;106891;1273;23878;-81
2023/11/08 09:57:44;;;;;;;2.60;1.00;;;;;;;12.47;59.69;95272.45;106867;1273;22528;-80
2023/11/08 10:00:15;;;;;;;1.20;1.10;;;;;;;12.67;57.42;95270.77;106891;1274;25756;-78
2023/11/08 10:02:44;;;;;;;2.80;1.20;;;;;;;12.86;57.28;95272.45;106879;1273;22649;-76
2023/11/08 10:05:13;;;;;;;1.70;1.10;;;;;;;12.80;56.96;95276.16;106845;1273;23021;-76
2023/11/08 10:07:42;;;;;;;1.30;0.90;;;;;;;12.51;56.56;95267.05;106862;1273;25351;-77
2023/11/08 10:10:10;;;;;;;1.90;0.90;;;;;;;12.67;56.45;95272.54;106767;1273;22527;-77
2023/11/08 10:12:38;;;;;;;6.00;4.90;;;;;;;12.79;57.03;95263.50;106825;1273;24944;-76
2023/11/08 10:15:07;;;;;;;3.20;1.80;;;;;;;13.24;57.16;95264.67;106965;1274;22640;-76
2023/11/08 10:17:37;;;;;;;1.90;1.30;;;;;;;13.23;54.22;95270.89;106905;1273;25418;-76
2023/11/08 10:20:30;;;;;;;2.80;0.90;;;;;;;13.16;55.33;95269.16;106852;1273;24809;-76
2023/11/08 10:23:02;;;;;;;1.70;0.80;;;;;;;13.07;54.80;95277.07;107062;1273;25405;-76
2023/11/08 10:25:32;;;;;;;8.20;7.40;;;;;;;13.11;55.22;95271.10;107012;1273;22530;-77
2023/11/08 10:28:07;;;;;;;1.90;1.30;;;;;;;13.54;55.07;95259.92;106901;1273;22550;-78
2023/11/08 10:32:32;;;;;;;1.60;1.20;;;;;;;13.77;52.80;95238.23;103724;1304;546068;-76
2023/11/08 10:35:27;;;;;;;2.40;1.30;;;;;;;13.31;52.69;95236.14;106130;1281;22548;-77
2023/11/08 10:37:55;;;;;;;1.60;1.20;;;;;;;12.73;54.65;95237.58;106012;1288;22543;-75
2023/11/08 10:40:31;;;;;;;2.10;1.40;;;;;;;12.94;54.85;95229.98;106071;1288;22540;-75
2023/11/08 10:43:02;;;;;;;1.50;1.20;;;;;;;13.23;54.29;95219.10;106055;1288;24424;-76
2023/11/08 10:45:32;;;;;;;4.80;1.20;;;;;;;13.31;53.69;95214.10;105798;1285;241540;-75
2023/11/08 10:48:02;;;;;;;1.30;1.20;;;;;;;12.78;54.63;95219.74;106096;1285;22668;-74
2023/11/08 10:50:32;;;;;;;1.40;0.80;;;;;;;12.60;55.41;95209.05;106030;1285;25242;-76
2023/11/08 10:53:00;;;;;;;2.10;1.60;;;;;;;12.97;55.64;95207.83;105950;1285;22656;-77
2023/11/08 10:55:28;;;;;;;3.50;1.20;;;;;;;13.67;53.77;95202.91;105977;1285;25203;-76
2023/11/08 10:58:04;;;;;;;4.70;1.20;;;;;;;13.95;52.98;95210.35;105891;1285;24272;-77
2023/11/08 11:00:35;;;;;;;3.00;1.40;;;;;;;13.66;53.81;95215.30;106082;1285;22661;-76
2023/11/08 11:03:11;;;;;;;1.60;1.00;;;;;;;14.02;54.25;95197.16;106356;1285;22532;-75
2023/11/08 11:05:43;;;;;;;1.80;1.00;;;;;;;13.94;52.96;95199.96;106333;1285;25317;-76
2023/11/08 11:08:18;;;;;;;1.80;1.20;;;;;;;14.05;52.39;95203.59;106800;1278;22530;-77
2023/11/08 11:10:47;;;;;;;1.20;1.10;;;;;;;13.86;52.47;95203.77;106789;1278;22808;-76
2023/11/08 11:13:27;;;;;;;1.40;0.90;;;;;;;14.11;52.74;95206.72;106763;1278;24086;-77
2023/11/08 11:16:18;;;;;;;1.00;0.90;;;;;;;14.23;52.67;95202.21;106763;1278;22520;-76
2023/11/08 11:19:08;;;;;;;1.80;1.00;;;;;;;14.03;52.18;95217.99;106752;1278;24279;-76
2023/11/08 11:21:48;;;;;;;3.60;0.80;;;;;;;14.04;52.72;95219.55;106354;1278;23429;-76
2023/11/08 11:24:32;;;;;;;1.00;0.90;;;;;;;13.49;53.02;95226.70;106395;1278;25268;-75
2023/11/08 11:27:01;;;;;;;0.90;0.90;;;;;;;13.31;53.26;95219.56;106420;1278;22534;-76
2023/11/08 11:29:30;;;;;;;0.70;0.70;;;;;;;12.94;53.97;95231.05;106495;1278;25255;-76
2023/11/08 11:32:03;;;;;;;0.70;0.70;;;;;;;13.13;53.68;95229.86;106475;1278;22533;-77
2023/11/08 11:34:36;;;;;;;1.70;1.00;;;;;;;13.50;53.43;95233.72;106389;1278;22533;-75
2023/11/08 11:37:13;;;;;;;0.70;0.70;;;;;;;13.67;52.72;95242.68;106509;1278;25432;-75
2023/11/08 11:39:49;;;;;;;0.70;0.70;;;;;;;12.93;54.62;95245.39;106399;1278;22549;-75
2023/11/08 11:42:19;;;;;;;0.80;0.80;;;;;;;12.49;56.15;95264.79;106495;1278;22527;-77